sensor_id;sensor_type;location;lat;lon;timestamp;temperature;humidity
664;DHT22;314;48.770;9.246;2022-09-14T00:00:06;21.00;85.60
664;DHT22;314;48.770;9.246;2022-09-14T00:02:33;20.90;85.60
664;DHT22;314;48.770;9.246;2022-09-14T00:04:59;20.90;85.90
664;DHT22;314;48.770;9.246;2022-09-14T00:07:24;20.90;85.90
664;DHT22;314;48.770;9.246;2022-09-14T00:09:51;20.90;85.90
664;DHT22;314;48.770;9.246;2022-09-14T00:12:17;20.90;86.20
664;DHT22;314;48.770;9.246;2022-09-14T00:14:43;20.90;86.40
664;DHT22;314;48.770;9.246;2022-09-14T00:17:08;20.90;86.40
664;DHT22;314;48.770;9.246;2022-09-14T00:19:34;20.90;86.40
664;DHT22;314;48.770;9.246;2022-09-14T00:22:00;20.90;85.90
664;DHT22;314;48.770;9.246;2022-09-14T00:24:27;20.90;85.60
664;DHT22;314;48.770;9.246;2022-09-14T00:26:55;21.00;84.90
664;DHT22;314;48.770;9.246;2022-09-14T00:29:21;21.00;85.30
664;DHT22;314;48.770;9.246;2022-09-14T00:31:48;20.90;85.50
664;DHT22;314;48.770;9.246;2022-09-14T00:34:15;21.00;85.90
664;DHT22;314;48.770;9.246;2022-09-14T00:36:43;21.00;87.00
664;DHT22;314;48.770;9.246;2022-09-14T00:39:09;21.10;87.40
664;DHT22;314;48.770;9.246;2022-09-14T00:41:38;21.10;87.70
664;DHT22;314;48.770;9.246;2022-09-14T00:44:52;21.00;87.70
664;DHT22;314;48.770;9.246;2022-09-14T00:46:54;21.10;87.70
664;DHT22;314;48.770;9.246;2022-09-14T00:49:31;21.10;87.80
664;DHT22;314;48.770;9.246;2022-09-14T00:52:06;21.10;87.60
664;DHT22;314;48.770;9.246;2022-09-14T00:54:47;21.10;87.00
664;DHT22;314;48.770;9.246;2022-09-14T00:57:14;21.10;86.40
664;DHT22;314;48.770;9.246;2022-09-14T00:59:41;21.10;86.70
664;DHT22;314;48.770;9.246;2022-09-14T01:02:10;21.10;86.20
664;DHT22;314;48.770;9.246;2022-09-14T01:04:38;21.10;85.90
664;DHT22;314;48.770;9.246;2022-09-14T01:10:17;21.10;85.60
664;DHT22;314;48.770;9.246;2022-09-14T01:15:23;21.20;86.40
664;DHT22;314;48.770;9.246;2022-09-14T01:20:31;21.20;86.40
664;DHT22;314;48.770;9.246;2022-09-14T01:31:52;21.30;88.70
664;DHT22;314;48.770;9.246;2022-09-14T01:36:54;20.90;94.00
664;DHT22;314;48.770;9.246;2022-09-14T01:39:22;20.80;94.70
664;DHT22;314;48.770;9.246;2022-09-14T01:41:49;20.60;96.60
664;DHT22;314;48.770;9.246;2022-09-14T01:44:23;20.40;97.90
664;DHT22;314;48.770;9.246;2022-09-14T01:46:54;20.30;99.10
664;DHT22;314;48.770;9.246;2022-09-14T01:49:27;20.20;99.10
664;DHT22;314;48.770;9.246;2022-09-14T01:52:39;20.20;99.10
664;DHT22;314;48.770;9.246;2022-09-14T01:55:17;20.10;99.10
664;DHT22;314;48.770;9.246;2022-09-14T01:57:51;20.10;99.10
664;DHT22;314;48.770;9.246;2022-09-14T02:00:19;20.00;99.10
664;DHT22;314;48.770;9.246;2022-09-14T02:02:53;20.00;99.10
664;DHT22;314;48.770;9.246;2022-09-14T02:07:45;20.00;99.10
664;DHT22;314;48.770;9.246;2022-09-14T02:10:13;20.00;99.10
664;DHT22;314;48.770;9.246;2022-09-14T02:12:40;20.00;99.10
664;DHT22;314;48.770;9.246;2022-09-14T02:15:07;19.90;99.10
664;DHT22;314;48.770;9.246;2022-09-14T02:17:34;19.90;99.10
664;DHT22;314;48.770;9.246;2022-09-14T02:20:02;19.90;99.10
664;DHT22;314;48.770;9.246;2022-09-14T02:22:30;19.80;99.10
664;DHT22;314;48.770;9.246;2022-09-14T02:24:56;19.90;99.10
664;DHT22;314;48.770;9.246;2022-09-14T02:27:22;19.80;99.10
664;DHT22;314;48.770;9.246;2022-09-14T02:29:49;19.90;99.10
664;DHT22;314;48.770;9.246;2022-09-14T02:32:40;19.90;99.10
664;DHT22;314;48.770;9.246;2022-09-14T02:48:56;20.10;99.10
664;DHT22;314;48.770;9.246;2022-09-14T02:54:35;20.10;99.10
664;DHT22;314;48.770;9.246;2022-09-14T02:57:03;20.10;99.10
664;DHT22;314;48.770;9.246;2022-09-14T02:59:29;20.10;99.10
664;DHT22;314;48.770;9.246;2022-09-14T03:01:56;20.10;99.10
664;DHT22;314;48.770;9.246;2022-09-14T03:04:23;20.20;99.10
664;DHT22;314;48.770;9.246;2022-09-14T03:06:48;20.10;99.10
664;DHT22;314;48.770;9.246;2022-09-14T03:09:14;20.00;99.10
664;DHT22;314;48.770;9.246;2022-09-14T03:11:40;20.00;99.10
664;DHT22;314;48.770;9.246;2022-09-14T03:14:06;20.10;99.10
664;DHT22;314;48.770;9.246;2022-09-14T03:16:31;20.10;99.10
664;DHT22;314;48.770;9.246;2022-09-14T03:18:57;20.10;99.10
664;DHT22;314;48.770;9.246;2022-09-14T03:21:23;20.20;99.10
664;DHT22;314;48.770;9.246;2022-09-14T03:23:51;20.20;99.10
664;DHT22;314;48.770;9.246;2022-09-14T03:26:19;20.10;99.10
664;DHT22;314;48.770;9.246;2022-09-14T03:28:53;20.10;99.10
664;DHT22;314;48.770;9.246;2022-09-14T03:31:19;20.10;99.10
664;DHT22;314;48.770;9.246;2022-09-14T03:33:45;20.10;99.10
664;DHT22;314;48.770;9.246;2022-09-14T03:36:15;20.10;99.10
664;DHT22;314;48.770;9.246;2022-09-14T03:38:48;20.10;99.10
664;DHT22;314;48.770;9.246;2022-09-14T03:41:14;20.10;99.10
664;DHT22;314;48.770;9.246;2022-09-14T03:43:41;20.00;99.10
664;DHT22;314;48.770;9.246;2022-09-14T03:46:12;20.00;99.10
664;DHT22;314;48.770;9.246;2022-09-14T03:48:38;19.90;99.10
664;DHT22;314;48.770;9.246;2022-09-14T03:51:06;19.90;99.10
664;DHT22;314;48.770;9.246;2022-09-14T03:53:32;19.90;99.10
664;DHT22;314;48.770;9.246;2022-09-14T03:55:58;19.90;99.10
664;DHT22;314;48.770;9.246;2022-09-14T03:58:24;19.80;99.10
664;DHT22;314;48.770;9.246;2022-09-14T04:00:51;19.80;99.10
664;DHT22;314;48.770;9.246;2022-09-14T04:03:17;19.80;99.10
664;DHT22;314;48.770;9.246;2022-09-14T04:05:43;19.80;99.10
664;DHT22;314;48.770;9.246;2022-09-14T04:08:10;19.80;99.10
664;DHT22;314;48.770;9.246;2022-09-14T04:10:38;19.80;99.10
664;DHT22;314;48.770;9.246;2022-09-14T04:13:04;19.80;99.10
664;DHT22;314;48.770;9.246;2022-09-14T04:15:29;19.80;99.10
664;DHT22;314;48.770;9.246;2022-09-14T04:17:55;19.80;99.10
664;DHT22;314;48.770;9.246;2022-09-14T04:20:21;19.80;99.10
664;DHT22;314;48.770;9.246;2022-09-14T04:22:47;19.80;99.10
664;DHT22;314;48.770;9.246;2022-09-14T04:25:13;19.70;99.10
664;DHT22;314;48.770;9.246;2022-09-14T04:27:39;19.80;99.10
664;DHT22;314;48.770;9.246;2022-09-14T04:30:05;19.80;99.10
664;DHT22;314;48.770;9.246;2022-09-14T04:32:31;19.80;99.10
664;DHT22;314;48.770;9.246;2022-09-14T04:34:57;19.70;99.10
664;DHT22;314;48.770;9.246;2022-09-14T04:37:23;19.70;99.10
664;DHT22;314;48.770;9.246;2022-09-14T04:39:48;19.70;99.10
664;DHT22;314;48.770;9.246;2022-09-14T04:42:14;19.60;99.10
664;DHT22;314;48.770;9.246;2022-09-14T04:44:40;19.70;99.10
664;DHT22;314;48.770;9.246;2022-09-14T04:47:06;19.60;99.10
664;DHT22;314;48.770;9.246;2022-09-14T04:49:32;19.50;99.10
664;DHT22;314;48.770;9.246;2022-09-14T04:51:58;19.50;99.10
664;DHT22;314;48.770;9.246;2022-09-14T04:54:24;19.50;99.10
664;DHT22;314;48.770;9.246;2022-09-14T04:56:50;19.40;99.10
664;DHT22;314;48.770;9.246;2022-09-14T04:59:16;19.50;99.10
664;DHT22;314;48.770;9.246;2022-09-14T05:01:43;19.40;99.10
664;DHT22;314;48.770;9.246;2022-09-14T05:04:10;19.30;99.10
664;DHT22;314;48.770;9.246;2022-09-14T05:06:38;19.40;99.10
664;DHT22;314;48.770;9.246;2022-09-14T05:09:09;19.30;99.10
664;DHT22;314;48.770;9.246;2022-09-14T05:11:37;19.20;99.10
664;DHT22;314;48.770;9.246;2022-09-14T05:14:03;19.20;99.10
664;DHT22;314;48.770;9.246;2022-09-14T05:16:33;19.20;99.10
664;DHT22;314;48.770;9.246;2022-09-14T05:19:02;19.20;99.10
664;DHT22;314;48.770;9.246;2022-09-14T05:21:30;19.30;99.10
664;DHT22;314;48.770;9.246;2022-09-14T05:23:59;19.30;99.10
664;DHT22;314;48.770;9.246;2022-09-14T05:26:26;19.40;99.10
664;DHT22;314;48.770;9.246;2022-09-14T05:28:54;19.40;99.10
664;DHT22;314;48.770;9.246;2022-09-14T05:31:20;19.50;99.10
664;DHT22;314;48.770;9.246;2022-09-14T05:33:46;19.50;99.10
664;DHT22;314;48.770;9.246;2022-09-14T05:36:12;19.50;99.10
664;DHT22;314;48.770;9.246;2022-09-14T05:38:39;19.60;99.10
664;DHT22;314;48.770;9.246;2022-09-14T05:41:06;19.60;99.10
664;DHT22;314;48.770;9.246;2022-09-14T05:43:33;19.70;99.10
664;DHT22;314;48.770;9.246;2022-09-14T05:46:03;19.80;99.10
664;DHT22;314;48.770;9.246;2022-09-14T05:48:33;19.80;99.10
664;DHT22;314;48.770;9.246;2022-09-14T05:51:01;19.90;99.10
664;DHT22;314;48.770;9.246;2022-09-14T05:53:28;19.90;99.10
664;DHT22;314;48.770;9.246;2022-09-14T05:56:06;19.90;99.10
664;DHT22;314;48.770;9.246;2022-09-14T05:58:32;19.90;99.10
664;DHT22;314;48.770;9.246;2022-09-14T06:01:04;20.00;99.10
664;DHT22;314;48.770;9.246;2022-09-14T06:03:33;20.00;99.10
664;DHT22;314;48.770;9.246;2022-09-14T06:05:59;20.10;99.10
664;DHT22;314;48.770;9.246;2022-09-14T06:08:25;20.10;99.10
664;DHT22;314;48.770;9.246;2022-09-14T06:10:51;20.20;99.10
664;DHT22;314;48.770;9.246;2022-09-14T06:13:17;20.30;99.10
664;DHT22;314;48.770;9.246;2022-09-14T06:15:42;20.30;99.10
664;DHT22;314;48.770;9.246;2022-09-14T06:18:08;20.40;99.10
664;DHT22;314;48.770;9.246;2022-09-14T06:20:34;20.40;99.10
664;DHT22;314;48.770;9.246;2022-09-14T06:23:00;20.50;99.10
664;DHT22;314;48.770;9.246;2022-09-14T06:25:25;20.60;99.10
664;DHT22;314;48.770;9.246;2022-09-14T06:27:53;20.70;99.10
664;DHT22;314;48.770;9.246;2022-09-14T06:30:20;20.70;99.10
664;DHT22;314;48.770;9.246;2022-09-14T06:32:45;20.80;99.10
664;DHT22;314;48.770;9.246;2022-09-14T06:35:11;20.80;99.10
664;DHT22;314;48.770;9.246;2022-09-14T06:37:37;20.90;99.10
664;DHT22;314;48.770;9.246;2022-09-14T06:40:03;20.90;99.10
664;DHT22;314;48.770;9.246;2022-09-14T06:42:29;21.00;99.10
664;DHT22;314;48.770;9.246;2022-09-14T06:44:55;21.00;99.10
664;DHT22;314;48.770;9.246;2022-09-14T06:47:21;21.10;99.10
664;DHT22;314;48.770;9.246;2022-09-14T06:49:48;21.10;99.10
664;DHT22;314;48.770;9.246;2022-09-14T06:52:15;21.10;99.10
664;DHT22;314;48.770;9.246;2022-09-14T06:54:40;21.10;99.10
664;DHT22;314;48.770;9.246;2022-09-14T06:57:06;21.10;99.10
664;DHT22;314;48.770;9.246;2022-09-14T06:59:32;21.10;99.10
664;DHT22;314;48.770;9.246;2022-09-14T07:01:58;21.10;99.10
664;DHT22;314;48.770;9.246;2022-09-14T07:04:24;21.10;99.10
664;DHT22;314;48.770;9.246;2022-09-14T07:06:50;21.10;99.10
664;DHT22;314;48.770;9.246;2022-09-14T07:09:17;21.20;99.10
664;DHT22;314;48.770;9.246;2022-09-14T07:11:44;21.20;99.10
664;DHT22;314;48.770;9.246;2022-09-14T07:14:11;21.20;99.10
664;DHT22;314;48.770;9.246;2022-09-14T07:16:38;21.20;99.10
664;DHT22;314;48.770;9.246;2022-09-14T07:19:09;21.30;99.10
664;DHT22;314;48.770;9.246;2022-09-14T07:21:35;21.30;99.10
664;DHT22;314;48.770;9.246;2022-09-14T07:24:01;21.40;99.10
664;DHT22;314;48.770;9.246;2022-09-14T07:26:29;21.40;99.10
664;DHT22;314;48.770;9.246;2022-09-14T07:29:03;21.50;99.10
664;DHT22;314;48.770;9.246;2022-09-14T07:34:02;21.70;99.10
664;DHT22;314;48.770;9.246;2022-09-14T07:36:29;21.80;99.10
664;DHT22;314;48.770;9.246;2022-09-14T07:38:56;21.80;99.10
664;DHT22;314;48.770;9.246;2022-09-14T07:41:24;21.90;99.10
664;DHT22;314;48.770;9.246;2022-09-14T07:43:52;22.00;99.10
664;DHT22;314;48.770;9.246;2022-09-14T07:46:19;22.10;99.10
664;DHT22;314;48.770;9.246;2022-09-14T07:48:46;22.10;99.10
664;DHT22;314;48.770;9.246;2022-09-14T07:51:12;22.10;99.10
664;DHT22;314;48.770;9.246;2022-09-14T07:53:40;22.20;99.10
664;DHT22;314;48.770;9.246;2022-09-14T07:56:11;22.30;99.10
664;DHT22;314;48.770;9.246;2022-09-14T07:58:38;22.40;99.10
664;DHT22;314;48.770;9.246;2022-09-14T08:01:13;22.50;99.10
664;DHT22;314;48.770;9.246;2022-09-14T08:03:41;22.70;99.10
664;DHT22;314;48.770;9.246;2022-09-14T08:06:11;22.80;99.10
664;DHT22;314;48.770;9.246;2022-09-14T08:08:40;23.00;99.10
664;DHT22;314;48.770;9.246;2022-09-14T08:11:12;23.10;99.10
664;DHT22;314;48.770;9.246;2022-09-14T08:13:40;23.30;99.10
664;DHT22;314;48.770;9.246;2022-09-14T08:16:06;23.40;99.10
664;DHT22;314;48.770;9.246;2022-09-14T08:18:33;23.60;98.40
664;DHT22;314;48.770;9.246;2022-09-14T08:21:18;23.80;96.40
664;DHT22;314;48.770;9.246;2022-09-14T08:23:44;23.90;96.60
664;DHT22;314;48.770;9.246;2022-09-14T08:26:13;23.90;95.80
664;DHT22;314;48.770;9.246;2022-09-14T08:28:39;24.00;96.20
664;DHT22;314;48.770;9.246;2022-09-14T08:31:08;24.10;96.40
664;DHT22;314;48.770;9.246;2022-09-14T08:33:36;24.20;96.20
664;DHT22;314;48.770;9.246;2022-09-14T08:36:03;24.30;96.20
664;DHT22;314;48.770;9.246;2022-09-14T08:38:29;24.40;94.40
664;DHT22;314;48.770;9.246;2022-09-14T08:40:57;24.50;95.20
664;DHT22;314;48.770;9.246;2022-09-14T08:43:24;24.60;94.10
664;DHT22;314;48.770;9.246;2022-09-14T08:45:56;24.60;95.00
664;DHT22;314;48.770;9.246;2022-09-14T08:48:28;24.60;94.10
664;DHT22;314;48.770;9.246;2022-09-14T08:50:55;24.50;95.70
664;DHT22;314;48.770;9.246;2022-09-14T08:53:21;24.50;94.10
664;DHT22;314;48.770;9.246;2022-09-14T08:55:55;24.60;95.40
664;DHT22;314;48.770;9.246;2022-09-14T09:12:00;24.60;92.80
664;DHT22;314;48.770;9.246;2022-09-14T09:14:32;24.70;92.90
664;DHT22;314;48.770;9.246;2022-09-14T09:17:02;24.80;93.10
664;DHT22;314;48.770;9.246;2022-09-14T09:19:38;24.90;92.40
664;DHT22;314;48.770;9.246;2022-09-14T09:22:11;25.00;91.50
664;DHT22;314;48.770;9.246;2022-09-14T09:24:40;25.10;90.70
664;DHT22;314;48.770;9.246;2022-09-14T09:27:12;25.30;90.10
664;DHT22;314;48.770;9.246;2022-09-14T09:29:38;25.30;91.60
664;DHT22;314;48.770;9.246;2022-09-14T09:32:16;25.40;86.60
664;DHT22;314;48.770;9.246;2022-09-14T09:34:42;25.60;87.10
664;DHT22;314;48.770;9.246;2022-09-14T09:37:17;25.70;86.20
664;DHT22;314;48.770;9.246;2022-09-14T09:39:43;25.80;86.00
664;DHT22;314;48.770;9.246;2022-09-14T09:42:24;26.00;86.90
664;DHT22;314;48.770;9.246;2022-09-14T09:47:38;26.70;84.40
664;DHT22;314;48.770;9.246;2022-09-14T09:52:52;27.00;80.80
664;DHT22;314;48.770;9.246;2022-09-14T09:55:20;27.00;81.30
664;DHT22;314;48.770;9.246;2022-09-14T09:57:47;27.10;80.90
664;DHT22;314;48.770;9.246;2022-09-14T10:02:47;27.30;78.40
664;DHT22;314;48.770;9.246;2022-09-14T10:08:03;27.00;77.60
664;DHT22;314;48.770;9.246;2022-09-14T10:13:05;26.90;80.20
664;DHT22;314;48.770;9.246;2022-09-14T10:15:33;26.90;79.20
664;DHT22;314;48.770;9.246;2022-09-14T10:20:28;27.20;78.10
664;DHT22;314;48.770;9.246;2022-09-14T10:22:54;27.50;77.80
664;DHT22;314;48.770;9.246;2022-09-14T10:25:23;27.70;76.60
664;DHT22;314;48.770;9.246;2022-09-14T10:32:59;27.60;74.80
664;DHT22;314;48.770;9.246;2022-09-14T10:35:53;27.60;75.80
664;DHT22;314;48.770;9.246;2022-09-14T10:41:23;27.70;75.20
664;DHT22;314;48.770;9.246;2022-09-14T10:55:34;27.80;76.90
664;DHT22;314;48.770;9.246;2022-09-14T10:58:13;27.90;74.90
664;DHT22;314;48.770;9.246;2022-09-14T11:01:00;27.90;72.10
664;DHT22;314;48.770;9.246;2022-09-14T11:06:55;28.00;71.00
664;DHT22;314;48.770;9.246;2022-09-14T11:09:26;28.00;70.60
664;DHT22;314;48.770;9.246;2022-09-14T11:14:37;28.10;71.70
664;DHT22;314;48.770;9.246;2022-09-14T11:23:35;28.70;69.40
664;DHT22;314;48.770;9.246;2022-09-14T11:28:57;28.80;70.90
664;DHT22;314;48.770;9.246;2022-09-14T11:36:53;29.30;68.70
664;DHT22;314;48.770;9.246;2022-09-14T11:39:36;29.40;67.60
664;DHT22;314;48.770;9.246;2022-09-14T11:42:07;29.30;68.90
664;DHT22;314;48.770;9.246;2022-09-14T11:44:36;29.10;67.00
664;DHT22;314;48.770;9.246;2022-09-14T11:47:05;29.10;67.40
664;DHT22;314;48.770;9.246;2022-09-14T11:52:16;29.50;64.80
664;DHT22;314;48.770;9.246;2022-09-14T11:54:43;29.50;67.70
664;DHT22;314;48.770;9.246;2022-09-14T11:57:16;29.60;65.60
664;DHT22;314;48.770;9.246;2022-09-14T12:12:57;28.60;65.50
664;DHT22;314;48.770;9.246;2022-09-14T12:15:41;28.50;67.10
664;DHT22;314;48.770;9.246;2022-09-14T12:36:07;27.90;68.50
664;DHT22;314;48.770;9.246;2022-09-14T12:51:43;27.40;71.30
664;DHT22;314;48.770;9.246;2022-09-14T12:56:54;26.80;77.00
664;DHT22;314;48.770;9.246;2022-09-14T13:05:27;25.10;81.40
664;DHT22;314;48.770;9.246;2022-09-14T13:07:54;24.70;84.20
664;DHT22;314;48.770;9.246;2022-09-14T13:10:33;24.50;87.30
664;DHT22;314;48.770;9.246;2022-09-14T13:13:01;24.40;89.80
664;DHT22;314;48.770;9.246;2022-09-14T13:15:32;24.30;89.40
664;DHT22;314;48.770;9.246;2022-09-14T13:20:29;24.00;92.40
664;DHT22;314;48.770;9.246;2022-09-14T13:22:55;24.00;91.90
664;DHT22;314;48.770;9.246;2022-09-14T13:25:33;23.80;92.30
664;DHT22;314;48.770;9.246;2022-09-14T13:28:12;23.70;92.00
664;DHT22;314;48.770;9.246;2022-09-14T13:30:39;23.60;93.60
664;DHT22;314;48.770;9.246;2022-09-14T13:33:17;23.40;93.50
664;DHT22;314;48.770;9.246;2022-09-14T13:35:56;23.50;94.70
664;DHT22;314;48.770;9.246;2022-09-14T13:38:25;23.50;93.90
664;DHT22;314;48.770;9.246;2022-09-14T13:40:54;23.40;93.30
664;DHT22;314;48.770;9.246;2022-09-14T13:43:21;23.30;94.40
664;DHT22;314;48.770;9.246;2022-09-14T13:45:48;23.10;94.30
664;DHT22;314;48.770;9.246;2022-09-14T13:48:16;23.00;94.40
664;DHT22;314;48.770;9.246;2022-09-14T13:50:46;23.00;95.50
664;DHT22;314;48.770;9.246;2022-09-14T13:53:47;22.90;95.80
664;DHT22;314;48.770;9.246;2022-09-14T13:56:29;22.80;95.40
664;DHT22;314;48.770;9.246;2022-09-14T14:01:39;22.60;96.60
664;DHT22;314;48.770;9.246;2022-09-14T14:04:05;22.50;96.70
664;DHT22;314;48.770;9.246;2022-09-14T14:06:33;22.50;96.70
664;DHT22;314;48.770;9.246;2022-09-14T14:09:05;22.50;95.80
664;DHT22;314;48.770;9.246;2022-09-14T14:11:41;22.40;96.60
664;DHT22;314;48.770;9.246;2022-09-14T14:19:48;22.20;95.60
664;DHT22;314;48.770;9.246;2022-09-14T14:24:49;22.20;95.80
664;DHT22;314;48.770;9.246;2022-09-14T14:27:32;22.30;95.00
664;DHT22;314;48.770;9.246;2022-09-14T14:30:20;22.30;95.20
664;DHT22;314;48.770;9.246;2022-09-14T14:32:51;22.30;95.10
664;DHT22;314;48.770;9.246;2022-09-14T14:35:23;22.30;94.20
664;DHT22;314;48.770;9.246;2022-09-14T14:37:50;22.40;95.30
664;DHT22;314;48.770;9.246;2022-09-14T14:40:17;22.40;95.50
664;DHT22;314;48.770;9.246;2022-09-14T14:42:43;22.40;95.00
664;DHT22;314;48.770;9.246;2022-09-14T14:45:21;22.50;95.30
664;DHT22;314;48.770;9.246;2022-09-14T14:47:51;22.60;95.20
664;DHT22;314;48.770;9.246;2022-09-14T14:50:22;22.60;95.90
664;DHT22;314;48.770;9.246;2022-09-14T14:52:49;22.60;95.40
664;DHT22;314;48.770;9.246;2022-09-14T14:55:16;22.60;95.70
664;DHT22;314;48.770;9.246;2022-09-14T14:57:42;22.60;95.60
664;DHT22;314;48.770;9.246;2022-09-14T15:00:17;22.60;95.90
664;DHT22;314;48.770;9.246;2022-09-14T15:02:43;22.60;95.70
664;DHT22;314;48.770;9.246;2022-09-14T15:05:10;22.60;95.70
664;DHT22;314;48.770;9.246;2022-09-14T15:07:36;22.60;96.30
664;DHT22;314;48.770;9.246;2022-09-14T15:10:02;22.50;97.30
664;DHT22;314;48.770;9.246;2022-09-14T15:12:28;22.40;97.10
664;DHT22;314;48.770;9.246;2022-09-14T15:14:53;22.30;96.00
664;DHT22;314;48.770;9.246;2022-09-14T15:17:19;22.20;96.00
664;DHT22;314;48.770;9.246;2022-09-14T15:19:45;22.10;95.90
664;DHT22;314;48.770;9.246;2022-09-14T15:22:11;22.10;97.00
664;DHT22;314;48.770;9.246;2022-09-14T15:24:38;22.10;98.40
664;DHT22;314;48.770;9.246;2022-09-14T15:27:04;22.00;96.20
664;DHT22;314;48.770;9.246;2022-09-14T15:29:30;22.00;97.60
664;DHT22;314;48.770;9.246;2022-09-14T15:31:56;22.00;97.80
664;DHT22;314;48.770;9.246;2022-09-14T15:34:22;22.00;98.00
664;DHT22;314;48.770;9.246;2022-09-14T15:36:50;21.90;98.50
664;DHT22;314;48.770;9.246;2022-09-14T15:39:19;22.00;98.90
664;DHT22;314;48.770;9.246;2022-09-14T15:41:45;22.10;98.50
664;DHT22;314;48.770;9.246;2022-09-14T15:44:11;22.10;97.80
664;DHT22;314;48.770;9.246;2022-09-14T15:46:38;22.10;96.80
664;DHT22;314;48.770;9.246;2022-09-14T15:49:07;22.10;96.70
664;DHT22;314;48.770;9.246;2022-09-14T15:51:33;22.00;96.50
664;DHT22;314;48.770;9.246;2022-09-14T15:54:00;22.00;96.40
664;DHT22;314;48.770;9.246;2022-09-14T15:56:26;21.90;96.90
664;DHT22;314;48.770;9.246;2022-09-14T15:58:52;21.90;96.10
664;DHT22;314;48.770;9.246;2022-09-14T16:01:18;21.90;96.50
664;DHT22;314;48.770;9.246;2022-09-14T16:03:44;21.90;96.20
664;DHT22;314;48.770;9.246;2022-09-14T16:06:12;21.90;95.30
664;DHT22;314;48.770;9.246;2022-09-14T16:08:41;21.90;95.30
664;DHT22;314;48.770;9.246;2022-09-14T16:11:08;21.80;95.10
664;DHT22;314;48.770;9.246;2022-09-14T16:13:34;21.80;95.30
664;DHT22;314;48.770;9.246;2022-09-14T16:16:10;21.70;95.90
664;DHT22;314;48.770;9.246;2022-09-14T16:18:36;21.60;95.40
664;DHT22;314;48.770;9.246;2022-09-14T16:21:16;21.60;95.50
664;DHT22;314;48.770;9.246;2022-09-14T16:23:45;21.50;96.20
664;DHT22;314;48.770;9.246;2022-09-14T16:26:19;21.40;96.30
664;DHT22;314;48.770;9.246;2022-09-14T16:28:47;21.40;96.60
664;DHT22;314;48.770;9.246;2022-09-14T16:31:15;21.40;96.80
664;DHT22;314;48.770;9.246;2022-09-14T16:33:44;21.30;97.10
664;DHT22;314;48.770;9.246;2022-09-14T16:36:13;21.30;97.10
664;DHT22;314;48.770;9.246;2022-09-14T16:38:39;21.40;97.00
664;DHT22;314;48.770;9.246;2022-09-14T16:41:09;21.30;96.40
664;DHT22;314;48.770;9.246;2022-09-14T16:43:35;21.40;96.40
664;DHT22;314;48.770;9.246;2022-09-14T16:48:30;21.50;96.40
664;DHT22;314;48.770;9.246;2022-09-14T16:50:56;21.50;97.10
664;DHT22;314;48.770;9.246;2022-09-14T16:53:23;21.50;96.50
664;DHT22;314;48.770;9.246;2022-09-14T16:55:49;21.60;95.50
664;DHT22;314;48.770;9.246;2022-09-14T16:58:15;21.50;96.40
664;DHT22;314;48.770;9.246;2022-09-14T17:00:41;21.50;96.50
664;DHT22;314;48.770;9.246;2022-09-14T17:03:07;21.50;96.60
664;DHT22;314;48.770;9.246;2022-09-14T17:05:32;21.60;96.20
664;DHT22;314;48.770;9.246;2022-09-14T17:07:58;21.60;96.40
664;DHT22;314;48.770;9.246;2022-09-14T17:10:24;21.60;96.30
664;DHT22;314;48.770;9.246;2022-09-14T17:12:50;21.70;96.50
664;DHT22;314;48.770;9.246;2022-09-14T17:15:16;21.60;96.60
664;DHT22;314;48.770;9.246;2022-09-14T17:17:41;21.50;96.60
664;DHT22;314;48.770;9.246;2022-09-14T17:20:07;21.40;97.00
664;DHT22;314;48.770;9.246;2022-09-14T17:22:34;21.40;97.40
664;DHT22;314;48.770;9.246;2022-09-14T17:25:00;21.30;97.30
664;DHT22;314;48.770;9.246;2022-09-14T17:27:25;21.30;97.40
664;DHT22;314;48.770;9.246;2022-09-14T17:29:51;21.30;97.40
664;DHT22;314;48.770;9.246;2022-09-14T17:32:17;21.30;97.60
664;DHT22;314;48.770;9.246;2022-09-14T17:34:44;21.20;97.50
664;DHT22;314;48.770;9.246;2022-09-14T17:37:10;21.30;97.80
664;DHT22;314;48.770;9.246;2022-09-14T17:39:36;21.20;98.00
664;DHT22;314;48.770;9.246;2022-09-14T17:42:01;21.10;98.20
664;DHT22;314;48.770;9.246;2022-09-14T17:44:27;21.10;98.40
664;DHT22;314;48.770;9.246;2022-09-14T17:46:56;21.00;98.60
664;DHT22;314;48.770;9.246;2022-09-14T17:49:22;20.90;98.60
664;DHT22;314;48.770;9.246;2022-09-14T17:51:48;20.90;98.80
664;DHT22;314;48.770;9.246;2022-09-14T17:54:14;20.80;99.10
664;DHT22;314;48.770;9.246;2022-09-14T17:56:40;20.70;99.10
664;DHT22;314;48.770;9.246;2022-09-14T17:59:14;20.70;99.10
664;DHT22;314;48.770;9.246;2022-09-14T18:01:40;20.70;99.10
664;DHT22;314;48.770;9.246;2022-09-14T18:04:10;20.60;99.10
664;DHT22;314;48.770;9.246;2022-09-14T18:06:40;20.50;99.10
664;DHT22;314;48.770;9.246;2022-09-14T18:09:13;20.50;99.10
664;DHT22;314;48.770;9.246;2022-09-14T18:11:40;20.50;99.10
664;DHT22;314;48.770;9.246;2022-09-14T18:14:05;20.40;99.10
664;DHT22;314;48.770;9.246;2022-09-14T18:16:32;20.40;99.10
664;DHT22;314;48.770;9.246;2022-09-14T18:18:58;20.40;99.10
664;DHT22;314;48.770;9.246;2022-09-14T18:21:25;20.40;99.10
664;DHT22;314;48.770;9.246;2022-09-14T18:23:52;20.30;99.10
664;DHT22;314;48.770;9.246;2022-09-14T18:26:19;20.40;99.10
664;DHT22;314;48.770;9.246;2022-09-14T18:28:45;20.40;99.10
664;DHT22;314;48.770;9.246;2022-09-14T18:31:13;20.30;99.10
664;DHT22;314;48.770;9.246;2022-09-14T18:33:46;20.30;99.10
664;DHT22;314;48.770;9.246;2022-09-14T18:36:12;20.30;99.10
664;DHT22;314;48.770;9.246;2022-09-14T18:38:39;20.30;99.10
664;DHT22;314;48.770;9.246;2022-09-14T18:41:07;20.30;99.10
664;DHT22;314;48.770;9.246;2022-09-14T18:43:33;20.20;99.10
664;DHT22;314;48.770;9.246;2022-09-14T18:46:03;20.10;99.10
664;DHT22;314;48.770;9.246;2022-09-14T18:48:29;20.10;99.10
664;DHT22;314;48.770;9.246;2022-09-14T18:50:59;20.00;99.10
664;DHT22;314;48.770;9.246;2022-09-14T18:53:25;20.00;99.10
664;DHT22;314;48.770;9.246;2022-09-14T18:55:51;20.10;99.10
664;DHT22;314;48.770;9.246;2022-09-14T18:58:16;20.10;99.10
664;DHT22;314;48.770;9.246;2022-09-14T19:00:42;20.10;99.10
664;DHT22;314;48.770;9.246;2022-09-14T19:03:11;20.10;99.10
664;DHT22;314;48.770;9.246;2022-09-14T19:05:39;20.10;99.10
664;DHT22;314;48.770;9.246;2022-09-14T19:08:06;20.10;99.10
664;DHT22;314;48.770;9.246;2022-09-14T19:10:35;20.00;99.10
664;DHT22;314;48.770;9.246;2022-09-14T19:13:02;20.00;99.10
664;DHT22;314;48.770;9.246;2022-09-14T19:15:28;20.00;99.10
664;DHT22;314;48.770;9.246;2022-09-14T19:17:54;20.00;99.10
664;DHT22;314;48.770;9.246;2022-09-14T19:20:19;20.00;99.10
664;DHT22;314;48.770;9.246;2022-09-14T19:22:47;20.00;99.10
664;DHT22;314;48.770;9.246;2022-09-14T19:25:13;19.90;99.10
664;DHT22;314;48.770;9.246;2022-09-14T19:27:38;19.90;99.10
664;DHT22;314;48.770;9.246;2022-09-14T19:30:05;20.00;99.10
664;DHT22;314;48.770;9.246;2022-09-14T19:32:32;20.00;99.10
664;DHT22;314;48.770;9.246;2022-09-14T19:34:58;19.90;99.10
664;DHT22;314;48.770;9.246;2022-09-14T19:37:23;19.90;99.10
664;DHT22;314;48.770;9.246;2022-09-14T19:39:49;19.90;99.10
664;DHT22;314;48.770;9.246;2022-09-14T19:42:15;19.80;99.10
664;DHT22;314;48.770;9.246;2022-09-14T19:44:41;19.80;99.10